Time;durP1;ratioP1;P1;durP2;ratioP2;P2;SDS_P1;SDS_P2;PMS_P1;PMS_P2;Temp;Humidity;BMP_temperature;BMP_pressure;BME280_temperature;BME280_humidity;BME280_pressure;Samples;Min_cycle;Max_cycle;Signal;HPM_P1;HPM_P2
2021/12/21 00:00:17;;;;;;;5.28;3.80;;;;;;;;;;5006176;28;20044;-48
2021/12/21 00:02:46;;;;;;;2.90;2.58;;;;;;;;;;5012997;28;20121;-49
2021/12/21 00:05:19;;;;;;;3.58;3.28;;;;;;;;;;5007836;28;20530;-48
2021/12/21 00:07:46;;;;;;;4.20;3.60;;;;;;;;;;5013711;28;20060;-48
2021/12/21 00:10:12;;;;;;;3.65;3.25;;;;;;;;;;5008937;28;20125;-51
2021/12/21 00:12:45;;;;;;;3.55;2.85;;;;;;;;;;5009207;28;20536;-49
2021/12/21 00:15:22;;;;;;;3.80;3.45;;;;;;;;;;5011596;28;20490;-49
2021/12/21 00:25:18;;;;;;;3.80;3.03;;;;;;;;;;5007554;28;20464;-48
2021/12/21 00:27:45;;;;;;;4.43;3.22;;;;;;;;;;5006250;28;20037;-47
2021/12/21 00:30:11;;;;;;;5.75;3.88;;;;;;;;;;5002086;28;20045;-50
2021/12/21 00:32:36;;;;;;;3.45;3.15;;;;;;;;;;5005804;28;20052;-48
2021/12/21 00:35:02;;;;;;;2.95;2.63;;;;;;;;;;5006712;28;20037;-48
2021/12/21 00:37:28;;;;;;;6.78;3.42;;;;;;;;;;5004762;28;20557;-47
2021/12/21 00:39:54;;;;;;;3.88;3.17;;;;;;;;;;5007088;28;20025;-48
2021/12/21 00:42:19;;;;;;;5.15;3.25;;;;;;;;;;5007696;28;20029;-47
2021/12/21 00:44:46;;;;;;;3.10;2.80;;;;;;;;;;5004888;28;20034;-48
2021/12/21 00:47:14;;;;;;;3.58;3.22;;;;;;;;;;5005259;28;20029;-50
2021/12/21 00:49:44;;;;;;;4.00;3.35;;;;;;;;;;5008952;28;20620;-47
2021/12/21 00:52:10;;;;;;;3.83;2.80;;;;;;;;;;5015461;28;20064;-48
2021/12/21 00:54:35;;;;;;;13.52;4.13;;;;;;;;;;5004856;28;20475;-49
2021/12/21 00:57:04;;;;;;;3.88;2.72;;;;;;;;;;5006755;28;20042;-48
2021/12/21 00:59:29;;;;;;;3.42;2.72;;;;;;;;;;5008390;28;20038;-48
2021/12/21 01:01:55;;;;;;;7.93;3.28;;;;;;;;;;5008352;28;20100;-49
2021/12/21 01:04:25;;;;;;;3.97;2.67;;;;;;;;;;4997881;28;20134;-48
2021/12/21 01:07:32;;;;;;;9.10;4.00;;;;;;;;;;5001464;28;20061;-50
2021/12/21 01:12:42;;;;;;;3.53;2.70;;;;;;;;;;4999462;28;20125;-46
2021/12/21 01:17:58;;;;;;;4.80;3.58;;;;;;;;;;5012645;28;20747;-46
2021/12/21 01:28:21;;;;;;;3.15;2.67;;;;;;;;;;5008827;28;20088;-48
2021/12/21 01:30:59;;;;;;;9.07;3.15;;;;;;;;;;5006776;28;20038;-47
2021/12/21 01:33:47;;;;;;;3.67;3.03;;;;;;;;;;5005717;28;20041;-46
2021/12/21 01:36:39;;;;;;;3.50;2.92;;;;;;;;;;5005801;28;20037;-49
2021/12/21 01:41:41;;;;;;;4.25;3.33;;;;;;;;;;5003100;28;20042;-46
2021/12/21 01:49:38;;;;;;;3.30;2.88;;;;;;;;;;5008635;28;20026;-47
2021/12/21 01:52:15;;;;;;;3.10;2.65;;;;;;;;;;5007105;28;20022;-46
2021/12/21 01:54:41;;;;;;;3.55;2.70;;;;;;;;;;5003056;28;20103;-48
2021/12/21 01:57:08;;;;;;;6.20;2.70;;;;;;;;;;5009829;28;20030;-46
2021/12/21 01:59:35;;;;;;;3.53;3.08;;;;;;;;;;5007933;28;20452;-47
2021/12/21 02:02:02;;;;;;;3.67;2.55;;;;;;;;;;5006530;28;20038;-47
2021/12/21 02:04:27;;;;;;;3.95;3.00;;;;;;;;;;5010962;28;20053;-46
2021/12/21 02:06:53;;;;;;;3.78;3.00;;;;;;;;;;5006592;28;20096;-47
2021/12/21 02:09:19;;;;;;;2.80;2.40;;;;;;;;;;5008840;28;20057;-46
2021/12/21 02:11:48;;;;;;;3.33;3.03;;;;;;;;;;5007008;28;20117;-46
2021/12/21 02:14:15;;;;;;;3.55;2.75;;;;;;;;;;5005538;28;20376;-46
2021/12/21 02:17:09;;;;;;;4.30;3.13;;;;;;;;;;5004352;28;20049;-46
2021/12/21 02:19:36;;;;;;;3.22;2.75;;;;;;;;;;5002211;28;20547;-47
2021/12/21 02:22:10;;;;;;;5.63;5.07;;;;;;;;;;5002513;28;20040;-48
2021/12/21 02:24:47;;;;;;;3.10;2.50;;;;;;;;;;5001388;28;20535;-51
2021/12/21 02:27:27;;;;;;;3.55;2.70;;;;;;;;;;5006732;28;20135;-46
2021/12/21 02:29:53;;;;;;;3.03;2.33;;;;;;;;;;5008596;28;20080;-47
2021/12/21 02:32:19;;;;;;;3.10;2.80;;;;;;;;;;5006347;28;20050;-47
2021/12/21 02:34:45;;;;;;;5.07;3.47;;;;;;;;;;5001426;28;20856;-46
2021/12/21 02:37:11;;;;;;;4.68;3.00;;;;;;;;;;5003487;28;20037;-47
2021/12/21 02:39:37;;;;;;;5.88;3.22;;;;;;;;;;5005801;28;20456;-47
2021/12/21 02:42:04;;;;;;;3.42;2.80;;;;;;;;;;5005361;28;20157;-46
2021/12/21 02:44:30;;;;;;;3.60;3.30;;;;;;;;;;5012724;28;20404;-46
2021/12/21 02:46:55;;;;;;;3.40;2.97;;;;;;;;;;5010707;28;20033;-47
2021/12/21 02:49:21;;;;;;;3.35;2.67;;;;;;;;;;5009217;28;20368;-50
2021/12/21 02:51:47;;;;;;;3.83;3.35;;;;;;;;;;5012098;28;20053;-47
2021/12/21 02:54:14;;;;;;;3.42;3.13;;;;;;;;;;5002320;28;20052;-47
2021/12/21 02:56:39;;;;;;;3.40;2.65;;;;;;;;;;5004860;28;20045;-46
2021/12/21 02:59:05;;;;;;;4.35;3.53;;;;;;;;;;5008039;28;20026;-48
2021/12/21 03:01:31;;;;;;;3.47;2.83;;;;;;;;;;5008702;28;20396;-47
2021/12/21 03:03:57;;;;;;;3.97;2.20;;;;;;;;;;5010508;28;20050;-47
2021/12/21 03:09:55;;;;;;;3.08;2.78;;;;;;;;;;5006171;28;20044;-50
2021/12/21 03:12:08;;;;;;;3.38;2.83;;;;;;;;;;5004957;28;20068;-47
2021/12/21 03:14:34;;;;;;;4.65;3.20;;;;;;;;;;5001757;28;20023;-48
2021/12/21 03:17:00;;;;;;;3.40;2.70;;;;;;;;;;5005881;28;20052;-49
2021/12/21 03:19:25;;;;;;;3.60;3.20;;;;;;;;;;5011258;28;20022;-48
2021/12/21 03:21:50;;;;;;;7.00;3.80;;;;;;;;;;5011221;28;20131;-47
2021/12/21 03:24:16;;;;;;;3.42;2.75;;;;;;;;;;5012746;28;20025;-46
2021/12/21 03:26:41;;;;;;;3.05;2.45;;;;;;;;;;5013477;28;20621;-46
2021/12/21 03:29:07;;;;;;;4.07;2.85;;;;;;;;;;5008583;28;20029;-47
2021/12/21 03:31:33;;;;;;;2.88;2.47;;;;;;;;;;5003970;28;20037;-46
2021/12/21 03:33:59;;;;;;;6.95;2.88;;;;;;;;;;5006744;28;20054;-49
2021/12/21 03:36:24;;;;;;;2.88;2.47;;;;;;;;;;5004833;28;20050;-51
2021/12/21 03:38:58;;;;;;;3.55;3.05;;;;;;;;;;5011081;28;20117;-47
2021/12/21 03:41:24;;;;;;;5.60;3.58;;;;;;;;;;5005899;28;20029;-47
2021/12/21 03:43:50;;;;;;;3.03;2.63;;;;;;;;;;5006226;28;20112;-49
2021/12/21 03:46:16;;;;;;;3.28;2.70;;;;;;;;;;5006379;28;20096;-47
2021/12/21 03:48:46;;;;;;;4.70;3.40;;;;;;;;;;5011513;28;20042;-47
2021/12/21 03:51:16;;;;;;;4.25;2.55;;;;;;;;;;5002045;28;20038;-47
2021/12/21 03:53:43;;;;;;;3.10;2.60;;;;;;;;;;5005692;28;20098;-47
2021/12/21 03:56:29;;;;;;;3.60;3.08;;;;;;;;;;5008145;28;20022;-46
2021/12/21 03:58:54;;;;;;;2.90;2.42;;;;;;;;;;5009307;28;20101;-47
2021/12/21 04:01:20;;;;;;;4.25;3.10;;;;;;;;;;5009111;28;20105;-48
2021/12/21 04:03:46;;;;;;;5.32;2.80;;;;;;;;;;5009122;28;20026;-46
2021/12/21 04:06:13;;;;;;;5.20;2.55;;;;;;;;;;5008038;28;20140;-47
2021/12/21 04:08:38;;;;;;;3.35;2.70;;;;;;;;;;5007890;28;20041;-47
2021/12/21 04:11:04;;;;;;;3.25;2.63;;;;;;;;;;5002929;28;20574;-50
2021/12/21 04:13:30;;;;;;;3.92;2.63;;;;;;;;;;5004064;28;20052;-48
2021/12/21 04:15:59;;;;;;;2.97;2.55;;;;;;;;;;5008432;28;20042;-49
2021/12/21 04:18:25;;;;;;;2.85;2.35;;;;;;;;;;5006154;28;20811;-48
2021/12/21 04:20:50;;;;;;;3.95;3.47;;;;;;;;;;5009834;28;20034;-50
2021/12/21 04:23:16;;;;;;;3.35;2.85;;;;;;;;;;5010403;28;20034;-49
2021/12/21 04:25:42;;;;;;;2.60;2.00;;;;;;;;;;5011496;28;20046;-50
2021/12/21 04:28:07;;;;;;;3.92;2.92;;;;;;;;;;5000655;28;20456;-51
2021/12/21 04:30:32;;;;;;;3.08;2.78;;;;;;;;;;5007699;28;20053;-50
2021/12/21 04:32:58;;;;;;;5.20;3.13;;;;;;;;;;5008418;28;20026;-48
2021/12/21 04:35:24;;;;;;;2.95;2.45;;;;;;;;;;5009653;28;20022;-50
2021/12/21 04:37:56;;;;;;;3.35;3.00;;;;;;;;;;5016996;28;20465;-50
2021/12/21 04:40:26;;;;;;;2.90;2.40;;;;;;;;;;5009129;28;20103;-51
2021/12/21 04:42:52;;;;;;;3.05;2.70;;;;;;;;;;5007897;28;20615;-50
2021/12/21 04:45:17;;;;;;;4.07;3.28;;;;;;;;;;5005314;28;20044;-51
2021/12/21 04:47:43;;;;;;;3.13;2.70;;;;;;;;;;5003846;28;20038;-49
2021/12/21 04:50:09;;;;;;;3.00;2.65;;;;;;;;;;5007281;28;20026;-50
2021/12/21 04:52:35;;;;;;;3.05;2.45;;;;;;;;;;5002639;28;20033;-50
2021/12/21 04:55:00;;;;;;;3.28;2.95;;;;;;;;;;5005672;28;20109;-53
2021/12/21 04:57:26;;;;;;;3.33;3.03;;;;;;;;;;5006053;28;20471;-52
2021/12/21 04:59:52;;;;;;;3.13;2.70;;;;;;;;;;5007789;28;20025;-49
2021/12/21 05:02:17;;;;;;;3.67;2.70;;;;;;;;;;5004635;28;20034;-50
2021/12/21 05:04:42;;;;;;;3.20;2.83;;;;;;;;;;5014065;28;20087;-51
2021/12/21 05:07:08;;;;;;;3.22;2.72;;;;;;;;;;5008385;28;20030;-49
2021/12/21 05:09:42;;;;;;;6.60;4.07;;;;;;;;;;5005408;28;20031;-49
2021/12/21 05:12:10;;;;;;;3.47;3.17;;;;;;;;;;5009179;28;20030;-50
2021/12/21 05:14:35;;;;;;;2.95;2.38;;;;;;;;;;5007591;28;20021;-51
2021/12/21 05:17:01;;;;;;;8.05;4.57;;;;;;;;;;5008259;28;20091;-51
2021/12/21 05:19:26;;;;;;;5.75;4.05;;;;;;;;;;5005467;28;20096;-48
2021/12/21 05:21:52;;;;;;;7.72;4.38;;;;;;;;;;5004305;28;20037;-51
2021/12/21 05:24:17;;;;;;;3.75;2.90;;;;;;;;;;5005114;28;20030;-49
2021/12/21 05:26:43;;;;;;;4.13;3.47;;;;;;;;;;5001502;28;20428;-46
2021/12/21 05:29:08;;;;;;;3.10;2.80;;;;;;;;;;5003362;28;20034;-48
2021/12/21 05:31:34;;;;;;;4.10;3.58;;;;;;;;;;5004100;28;20098;-48
2021/12/21 05:33:59;;;;;;;5.60;4.10;;;;;;;;;;5003216;28;20033;-48
2021/12/21 05:36:25;;;;;;;4.28;3.60;;;;;;;;;;5009389;28;20075;-47
2021/12/21 05:38:55;;;;;;;3.72;2.55;;;;;;;;;;5005630;28;20120;-48
2021/12/21 05:41:39;;;;;;;4.03;3.22;;;;;;;;;;5003941;28;20034;-46
2021/12/21 05:44:04;;;;;;;2.83;2.40;;;;;;;;;;5010212;28;20479;-47
2021/12/21 05:46:30;;;;;;;3.03;2.65;;;;;;;;;;5007652;28;20046;-49
2021/12/21 05:48:55;;;;;;;4.95;4.18;;;;;;;;;;5012669;28;20030;-49
2021/12/21 05:51:21;;;;;;;3.15;2.83;;;;;;;;;;5007102;28;20037;-47
2021/12/21 05:53:47;;;;;;;3.78;3.38;;;;;;;;;;5005524;28;20667;-50
2021/12/21 05:56:12;;;;;;;6.05;3.03;;;;;;;;;;5000174;28;20034;-49
2021/12/21 05:58:37;;;;;;;3.67;3.05;;;;;;;;;;5004122;28;20032;-48
2021/12/21 06:01:03;;;;;;;4.53;3.63;;;;;;;;;;5001284;28;20483;-46
2021/12/21 06:03:29;;;;;;;3.92;3.03;;;;;;;;;;5005968;28;20076;-45
2021/12/21 06:05:54;;;;;;;4.13;3.33;;;;;;;;;;5004035;28;20030;-47
2021/12/21 06:08:22;;;;;;;4.45;3.35;;;;;;;;;;5005553;28;20449;-47
2021/12/21 06:10:50;;;;;;;3.47;2.72;;;;;;;;;;5008422;28;20096;-45
2021/12/21 06:16:24;;;;;;;3.08;2.60;;;;;;;;;;5007391;28;20464;-45
2021/12/21 06:25:21;;;;;;;4.93;3.13;;;;;;;;;;5002073;28;20623;-48
2021/12/21 06:26:49;;;;;;;4.18;2.85;;;;;;;;;;4989566;28;20056;-47
2021/12/21 06:29:15;;;;;;;2.75;2.22;;;;;;;;;;5004432;28;20040;-47
2021/12/21 06:31:40;;;;;;;4.50;3.00;;;;;;;;;;5006911;28;20033;-50
2021/12/21 06:34:06;;;;;;;4.68;3.88;;;;;;;;;;5002194;28;20022;-51
2021/12/21 06:36:32;;;;;;;4.38;3.10;;;;;;;;;;5001807;28;20320;-52
2021/12/21 06:38:58;;;;;;;4.30;3.53;;;;;;;;;;5002616;28;20026;-47
2021/12/21 06:41:23;;;;;;;7.40;4.18;;;;;;;;;;5003561;28;20052;-49
2021/12/21 06:43:49;;;;;;;3.45;3.08;;;;;;;;;;5003639;28;20035;-48
2021/12/21 06:53:53;;;;;;;3.38;2.88;;;;;;;;;;5002299;28;20662;-48
2021/12/21 06:56:19;;;;;;;3.90;2.78;;;;;;;;;;5004330;28;20467;-47
2021/12/21 06:58:45;;;;;;;4.50;3.00;;;;;;;;;;5004487;28;20506;-47
2021/12/21 07:01:13;;;;;;;2.95;2.53;;;;;;;;;;5007224;28;20069;-46
2021/12/21 07:03:41;;;;;;;3.17;2.85;;;;;;;;;;5006578;28;20018;-48
2021/12/21 07:06:07;;;;;;;5.22;3.47;;;;;;;;;;5005951;28;20041;-49
2021/12/21 07:08:43;;;;;;;3.20;2.63;;;;;;;;;;5005493;28;20033;-50
2021/12/21 07:11:17;;;;;;;3.53;3.17;;;;;;;;;;5006471;28;20035;-47
2021/12/21 07:19:12;;;;;;;3.47;2.95;;;;;;;;;;5002761;28;20109;-49
2021/12/21 07:21:37;;;;;;;3.38;3.08;;;;;;;;;;5002221;28;20053;-50
2021/12/21 07:24:03;;;;;;;3.30;2.72;;;;;;;;;;5008840;28;20056;-52
2021/12/21 07:26:29;;;;;;;3.50;2.65;;;;;;;;;;4997271;28;20030;-48
2021/12/21 07:28:54;;;;;;;2.80;2.25;;;;;;;;;;5013136;28;20109;-59
2021/12/21 07:31:19;;;;;;;5.45;3.35;;;;;;;;;;5007073;28;20444;-54
2021/12/21 07:33:45;;;;;;;4.03;3.08;;;;;;;;;;5011269;28;20518;-48
2021/12/21 07:36:10;;;;;;;3.30;2.63;;;;;;;;;;5002507;28;20112;-50
2021/12/21 07:38:35;;;;;;;6.05;2.92;;;;;;;;;;5015318;28;20061;-49
2021/12/21 07:41:01;;;;;;;3.55;3.05;;;;;;;;;;5004663;28;20363;-50
2021/12/21 07:43:27;;;;;;;3.70;3.30;;;;;;;;;;5007917;28;20018;-49
2021/12/21 07:45:53;;;;;;;4.25;3.47;;;;;;;;;;5010079;28;20079;-51
2021/12/21 07:48:18;;;;;;;3.70;3.03;;;;;;;;;;5002725;28;20026;-49
2021/12/21 07:50:46;;;;;;;3.92;2.97;;;;;;;;;;5005272;28;20033;-48
2021/12/21 07:53:16;;;;;;;4.57;3.63;;;;;;;;;;5005151;28;20265;-53
2021/12/21 07:55:42;;;;;;;17.88;7.88;;;;;;;;;;5006119;28;20065;-50
2021/12/21 07:58:07;;;;;;;3.80;3.22;;;;;;;;;;5007540;28;20105;-49
2021/12/21 08:00:33;;;;;;;3.10;2.75;;;;;;;;;;5008326;28;20160;-48
2021/12/21 08:02:59;;;;;;;2.88;2.42;;;;;;;;;;5010914;28;20021;-48
2021/12/21 08:05:30;;;;;;;10.27;2.72;;;;;;;;;;5009357;28;20406;-50
2021/12/21 08:08:04;;;;;;;3.67;2.60;;;;;;;;;;5007707;28;20520;-52
2021/12/21 08:10:41;;;;;;;3.53;3.05;;;;;;;;;;5013113;28;20459;-48
2021/12/21 08:13:07;;;;;;;4.00;2.67;;;;;;;;;;5009489;28;20041;-49
2021/12/21 08:15:33;;;;;;;4.07;2.72;;;;;;;;;;5002579;28;20088;-52
2021/12/21 08:17:58;;;;;;;3.28;2.83;;;;;;;;;;5008635;28;20109;-48
2021/12/21 08:20:26;;;;;;;5.57;4.47;;;;;;;;;;5010422;28;20345;-51
2021/12/21 08:22:52;;;;;;;4.45;4.05;;;;;;;;;;5009946;28;20032;-49
2021/12/21 08:25:17;;;;;;;3.10;2.60;;;;;;;;;;5007940;28;20617;-52
2021/12/21 08:27:42;;;;;;;3.80;3.40;;;;;;;;;;5004469;28;20042;-49
2021/12/21 08:30:08;;;;;;;7.47;3.63;;;;;;;;;;5003110;28;20041;-51
2021/12/21 08:32:34;;;;;;;3.40;2.80;;;;;;;;;;5004514;28;20030;-53
2021/12/21 08:34:59;;;;;;;5.95;3.28;;;;;;;;;;5010909;28;20451;-51
2021/12/21 08:37:25;;;;;;;5.70;3.30;;;;;;;;;;5009939;28;20029;-51
2021/12/21 08:39:50;;;;;;;7.65;3.05;;;;;;;;;;5012526;28;20096;-51
2021/12/21 08:42:16;;;;;;;2.97;2.53;;;;;;;;;;5007869;28;20034;-53
2021/12/21 08:44:45;;;;;;;4.20;3.50;;;;;;;;;;5003880;28;20037;-50
2021/12/21 08:47:11;;;;;;;3.25;2.88;;;;;;;;;;5006407;28;20100;-52
2021/12/21 08:49:37;;;;;;;3.17;2.63;;;;;;;;;;5009315;28;20038;-48
2021/12/21 08:52:02;;;;;;;3.33;2.78;;;;;;;;;;5012627;28;20048;-50
2021/12/21 08:54:27;;;;;;;3.20;2.70;;;;;;;;;;5008977;28;20372;-50
2021/12/21 08:56:53;;;;;;;2.92;2.58;;;;;;;;;;5007107;28;20030;-47
2021/12/21 08:59:19;;;;;;;3.85;3.45;;;;;;;;;;5004405;28;20037;-47
2021/12/21 09:01:45;;;;;;;3.25;2.83;;;;;;;;;;5000335;28;20052;-47
2021/12/21 09:04:11;;;;;;;4.45;3.92;;;;;;;;;;5006321;28;20152;-47
2021/12/21 09:06:37;;;;;;;3.45;3.15;;;;;;;;;;5006422;28;20112;-48
2021/12/21 09:09:04;;;;;;;3.47;2.95;;;;;;;;;;5005018;28;20141;-50
2021/12/21 09:11:29;;;;;;;3.15;2.45;;;;;;;;;;5010644;28;20044;-48
2021/12/21 09:13:54;;;;;;;5.30;3.17;;;;;;;;;;5012082;28;20030;-47
2021/12/21 09:16:20;;;;;;;3.88;2.92;;;;;;;;;;5007771;28;20030;-48
2021/12/21 09:18:46;;;;;;;3.60;3.03;;;;;;;;;;5010660;28;20452;-48
2021/12/21 09:21:11;;;;;;;4.35;3.60;;;;;;;;;;5013205;28;20034;-50
2021/12/21 09:23:37;;;;;;;4.25;3.85;;;;;;;;;;5005123;28;20506;-52
2021/12/21 09:26:02;;;;;;;3.22;2.60;;;;;;;;;;5008833;28;20044;-50
2021/12/21 09:28:28;;;;;;;2.85;2.40;;;;;;;;;;5017363;28;20029;-52
2021/12/21 09:30:53;;;;;;;3.45;2.65;;;;;;;;;;5009746;28;20029;-48
2021/12/21 09:33:19;;;;;;;2.80;2.47;;;;;;;;;;5007555;28;20030;-49
2021/12/21 09:35:44;;;;;;;3.50;3.08;;;;;;;;;;5005749;28;20464;-49
2021/12/21 09:38:10;;;;;;;2.90;2.40;;;;;;;;;;4998209;28;20018;-49
2021/12/21 09:40:39;;;;;;;6.63;2.80;;;;;;;;;;5003754;28;20083;-53
2021/12/21 09:43:06;;;;;;;3.40;3.03;;;;;;;;;;5003577;28;20085;-54
2021/12/21 09:45:32;;;;;;;4.07;2.90;;;;;;;;;;5001143;28;20121;-48
2021/12/21 09:47:57;;;;;;;4.43;3.42;;;;;;;;;;5003297;28;20693;-49
2021/12/21 09:50:25;;;;;;;2.95;2.65;;;;;;;;;;5005416;28;20105;-51
2021/12/21 09:52:52;;;;;;;2.80;2.30;;;;;;;;;;5005702;28;20088;-50
2021/12/21 09:55:19;;;;;;;3.10;2.70;;;;;;;;;;5004679;28;20068;-49
2021/12/21 09:57:44;;;;;;;4.60;3.42;;;;;;;;;;5009914;28;20415;-52
2021/12/21 10:00:15;;;;;;;3.30;2.67;;;;;;;;;;5013183;28;20041;-54
2021/12/21 10:02:41;;;;;;;5.50;2.88;;;;;;;;;;5007410;28;20376;-52
2021/12/21 10:05:13;;;;;;;3.67;2.60;;;;;;;;;;5006558;28;20018;-50
2021/12/21 10:07:39;;;;;;;5.75;2.40;;;;;;;;;;5009605;28;20041;-49
2021/12/21 10:10:11;;;;;;;3.47;2.92;;;;;;;;;;5009936;28;20025;-53
2021/12/21 10:12:41;;;;;;;3.72;3.15;;;;;;;;;;5007618;28;20483;-51
2021/12/21 10:15:14;;;;;;;3.55;2.83;;;;;;;;;;4990704;28;20026;-54
2021/12/21 10:18:00;;;;;;;4.95;2.92;;;;;;;;;;4999096;28;20029;-52
2021/12/21 10:20:34;;;;;;;2.90;2.55;;;;;;;;;;5001373;28;20486;-54
2021/12/21 10:23:07;;;;;;;4.47;3.22;;;;;;;;;;5003209;28;20034;-55
2021/12/21 10:25:32;;;;;;;4.25;3.15;;;;;;;;;;5007892;28;20760;-54
2021/12/21 10:27:57;;;;;;;4.75;3.67;;;;;;;;;;5006911;28;20033;-55
2021/12/21 10:30:23;;;;;;;3.03;2.50;;;;;;;;;;5008020;28;20026;-58
2021/12/21 10:32:54;;;;;;;4.05;3.15;;;;;;;;;;5005221;28;20360;-58
2021/12/21 10:35:30;;;;;;;3.55;3.17;;;;;;;;;;5007372;28;20054;-58
2021/12/21 10:37:56;;;;;;;3.58;2.70;;;;;;;;;;4997999;28;20209;-56
2021/12/21 10:40:25;;;;;;;3.17;2.55;;;;;;;;;;5003219;28;20038;-55
2021/12/21 10:42:55;;;;;;;3.28;2.60;;;;;;;;;;5008545;28;20049;-58
2021/12/21 10:45:33;;;;;;;5.25;3.15;;;;;;;;;;5004500;28;20088;-55
2021/12/21 10:48:00;;;;;;;3.40;2.80;;;;;;;;;;5002283;28;20112;-58
2021/12/21 10:50:28;;;;;;;4.85;3.10;;;;;;;;;;5004875;28;20022;-55
2021/12/21 10:52:57;;;;;;;8.07;4.13;;;;;;;;;;4999241;28;20023;-55
2021/12/21 10:55:29;;;;;;;3.38;2.67;;;;;;;;;;5001272;28;20068;-55
2021/12/21 10:58:20;;;;;;;4.07;3.25;;;;;;;;;;4999799;28;20033;-52
2021/12/21 11:00:50;;;;;;;;;;;;;;;;;;5003487;28;20133;-53
2021/12/21 11:03:17;;;;;;;15.65;3.08;;;;;;;;;;5003444;28;19913;-53
2021/12/21 11:05:45;;;;;;;3.95;2.90;;;;;;;;;;5010448;28;20052;-54
2021/12/21 11:08:16;;;;;;;3.10;2.65;;;;;;;;;;5008335;28;20064;-53
2021/12/21 11:10:50;;;;;;;4.40;3.17;;;;;;;;;;5011556;28;20693;-51
2021/12/21 11:13:16;;;;;;;4.30;3.75;;;;;;;;;;5012432;28;20054;-52
2021/12/21 11:15:51;;;;;;;7.65;4.80;;;;;;;;;;5011205;28;20076;-53
2021/12/21 11:18:17;;;;;;;3.80;2.33;;;;;;;;;;5010084;28;20116;-52
2021/12/21 11:20:45;;;;;;;5.03;4.22;;;;;;;;;;5010945;28;20649;-51
2021/12/21 11:23:22;;;;;;;4.25;3.40;;;;;;;;;;5014086;28;20057;-51
2021/12/21 11:25:49;;;;;;;3.40;2.95;;;;;;;;;;5008434;28;20041;-48
2021/12/21 11:28:21;;;;;;;3.25;2.95;;;;;;;;;;5001340;28;20439;-48
2021/12/21 11:30:47;;;;;;;3.33;2.97;;;;;;;;;;5006869;28;20030;-55
2021/12/21 11:33:17;;;;;;;4.57;3.67;;;;;;;;;;5000868;28;20057;-53
2021/12/21 11:38:11;;;;;;;3.20;2.90;;;;;;;;;;5007285;28;20037;-52
2021/12/21 11:40:43;;;;;;;3.83;3.42;;;;;;;;;;5007378;28;20527;-49
2021/12/21 11:43:30;;;;;;;4.45;3.53;;;;;;;;;;5013573;28;20034;-49
2021/12/21 11:46:02;;;;;;;8.48;3.40;;;;;;;;;;5006488;28;20025;-49
2021/12/21 11:48:50;;;;;;;4.57;3.92;;;;;;;;;;5011915;28;20152;-49
2021/12/21 11:51:16;;;;;;;3.13;2.78;;;;;;;;;;5007773;28;20053;-50
2021/12/21 11:53:42;;;;;;;3.15;2.75;;;;;;;;;;5009453;28;20446;-47
2021/12/21 11:56:09;;;;;;;4.55;3.38;;;;;;;;;;5009337;28;20037;-48
2021/12/21 11:58:40;;;;;;;3.03;2.63;;;;;;;;;;5010503;28;20018;-50
2021/12/21 12:01:23;;;;;;;18.75;6.47;;;;;;;;;;5007894;28;20025;-50
2021/12/21 12:04:00;;;;;;;6.22;4.70;;;;;;;;;;5009699;28;20488;-49
2021/12/21 12:06:28;;;;;;;4.30;3.90;;;;;;;;;;5006366;28;20435;-50
2021/12/21 12:09:04;;;;;;;5.00;4.50;;;;;;;;;;5008910;28;20037;-50
2021/12/21 12:11:35;;;;;;;8.60;4.68;;;;;;;;;;5006403;28;20026;-48
2021/12/21 12:14:08;;;;;;;4.03;2.95;;;;;;;;;;5000675;28;20034;-49
2021/12/21 12:16:45;;;;;;;3.38;2.60;;;;;;;;;;5005021;28;20140;-52
2021/12/21 12:19:13;;;;;;;3.10;2.80;;;;;;;;;;5006158;28;20659;-52
2021/12/21 12:21:39;;;;;;;3.15;2.85;;;;;;;;;;5007182;28;20069;-53
2021/12/21 12:24:05;;;;;;;8.30;2.95;;;;;;;;;;5009921;28;20437;-54
2021/12/21 12:26:34;;;;;;;9.20;3.25;;;;;;;;;;5004213;28;20095;-53
2021/12/21 12:29:20;;;;;;;4.28;3.60;;;;;;;;;;5015591;28;20039;-51
2021/12/21 12:32:04;;;;;;;3.22;2.80;;;;;;;;;;5012333;28;20037;-51
2021/12/21 12:34:34;;;;;;;4.85;3.58;;;;;;;;;;5017883;28;20039;-51
2021/12/21 12:37:12;;;;;;;5.38;4.30;;;;;;;;;;5008361;28;20348;-47
2021/12/21 12:39:42;;;;;;;3.97;3.08;;;;;;;;;;5006152;28;20030;-52
2021/12/21 12:42:11;;;;;;;4.82;4.13;;;;;;;;;;5001358;28;20038;-54
2021/12/21 12:44:40;;;;;;;3.95;3.47;;;;;;;;;;5005909;28;20056;-53
2021/12/21 12:47:09;;;;;;;6.50;4.03;;;;;;;;;;5004227;28;20145;-53
2021/12/21 12:49:40;;;;;;;5.13;3.30;;;;;;;;;;5002466;28;20507;-54
2021/12/21 12:52:17;;;;;;;3.10;2.78;;;;;;;;;;5004309;28;20030;-54
2021/12/21 12:54:52;;;;;;;3.70;3.30;;;;;;;;;;5006260;28;20038;-52
2021/12/21 12:57:28;;;;;;;3.13;2.67;;;;;;;;;;5006259;28;20079;-57
2021/12/21 13:00:08;;;;;;;5.47;3.30;;;;;;;;;;5007644;28;20522;-52
2021/12/21 13:02:34;;;;;;;3.88;3.28;;;;;;;;;;5001346;28;20061;-51
2021/12/21 13:05:12;;;;;;;2.97;2.58;;;;;;;;;;5006615;28;20026;-54
2021/12/21 13:07:38;;;;;;;3.05;2.75;;;;;;;;;;5009440;28;20041;-54
2021/12/21 13:10:07;;;;;;;2.83;2.40;;;;;;;;;;5000697;28;20041;-52
2021/12/21 13:12:33;;;;;;;3.00;2.70;;;;;;;;;;5008441;28;20045;-50
2021/12/21 13:14:59;;;;;;;3.30;2.85;;;;;;;;;;5010957;28;20026;-52
2021/12/21 13:17:24;;;;;;;10.00;3.10;;;;;;;;;;5004038;28;20025;-54
2021/12/21 13:19:50;;;;;;;3.50;2.75;;;;;;;;;;5008548;28;20044;-53
2021/12/21 13:22:24;;;;;;;4.35;2.63;;;;;;;;;;5002557;28;20033;-54
2021/12/21 13:24:52;;;;;;;3.75;3.20;;;;;;;;;;5001743;28;20034;-52
2021/12/21 13:27:20;;;;;;;3.00;2.60;;;;;;;;;;5002993;28;20440;-52
2021/12/21 13:29:47;;;;;;;3.08;2.65;;;;;;;;;;5007402;28;20052;-53
2021/12/21 13:32:15;;;;;;;2.92;2.47;;;;;;;;;;5002268;28;20032;-54
2021/12/21 13:34:42;;;;;;;3.10;2.53;;;;;;;;;;5006047;28;20117;-49
2021/12/21 13:37:12;;;;;;;3.30;2.65;;;;;;;;;;5001838;28;20046;-51
2021/12/21 13:39:40;;;;;;;2.88;2.50;;;;;;;;;;5006196;28;20055;-50
2021/12/21 13:42:14;;;;;;;2.80;2.30;;;;;;;;;;5012334;28;20113;-51
2021/12/21 13:44:49;;;;;;;3.30;2.83;;;;;;;;;;5022635;28;20026;-54
2021/12/21 13:47:17;;;;;;;3.22;2.42;;;;;;;;;;5020942;28;20030;-52
2021/12/21 13:50:07;;;;;;;3.10;2.60;;;;;;;;;;5004054;28;20041;-50
2021/12/21 13:52:34;;;;;;;2.80;2.33;;;;;;;;;;5006302;28;20092;-54
2021/12/21 13:55:00;;;;;;;2.95;2.53;;;;;;;;;;5007595;28;20030;-52
2021/12/21 13:57:26;;;;;;;2.90;2.55;;;;;;;;;;5005716;28;20041;-52
2021/12/21 13:59:54;;;;;;;4.55;2.90;;;;;;;;;;5001969;28;20022;-53
2021/12/21 14:02:29;;;;;;;4.90;3.17;;;;;;;;;;4997689;28;20068;-52
2021/12/21 14:05:03;;;;;;;3.20;2.70;;;;;;;;;;5008299;28;20084;-54
2021/12/21 14:07:40;;;;;;;3.30;2.90;;;;;;;;;;5009494;28;20104;-52
2021/12/21 14:10:16;;;;;;;2.80;2.42;;;;;;;;;;5006762;28;20475;-52
2021/12/21 14:12:53;;;;;;;3.92;2.75;;;;;;;;;;5004821;28;20465;-50
2021/12/21 14:15:18;;;;;;;2.90;2.60;;;;;;;;;;5008206;28;20045;-53
2021/12/21 14:17:44;;;;;;;2.90;2.50;;;;;;;;;;5008620;28;20033;-53
2021/12/21 14:20:09;;;;;;;3.15;2.85;;;;;;;;;;5012439;28;20036;-52
2021/12/21 14:22:37;;;;;;;3.60;3.03;;;;;;;;;;5008590;28;20479;-53
2021/12/21 14:25:13;;;;;;;2.95;2.53;;;;;;;;;;5002450;28;20026;-50
2021/12/21 14:27:38;;;;;;;4.25;2.70;;;;;;;;;;5005393;28;20038;-52
2021/12/21 14:30:10;;;;;;;2.83;2.45;;;;;;;;;;5004378;28;20088;-53
2021/12/21 14:33:03;;;;;;;2.85;2.45;;;;;;;;;;5005462;28;20056;-50
2021/12/21 14:35:27;;;;;;;2.80;2.33;;;;;;;;;;5003947;28;20041;-51
2021/12/21 14:37:52;;;;;;;3.63;2.85;;;;;;;;;;5006094;28;20033;-52
2021/12/21 14:40:18;;;;;;;4.35;3.40;;;;;;;;;;5004397;28;20046;-51
2021/12/21 14:42:50;;;;;;;4.65;3.65;;;;;;;;;;5005859;28;20036;-53
2021/12/21 14:45:15;;;;;;;3.75;2.85;;;;;;;;;;5011085;28;20634;-53
2021/12/21 14:47:40;;;;;;;2.80;2.33;;;;;;;;;;5010809;28;20045;-51
2021/12/21 14:50:12;;;;;;;2.97;2.67;;;;;;;;;;5010958;28;20029;-53
2021/12/21 14:52:42;;;;;;;4.28;3.03;;;;;;;;;;5007047;28;20064;-53
2021/12/21 14:55:14;;;;;;;3.78;3.22;;;;;;;;;;5009129;28;20120;-53
2021/12/21 14:57:48;;;;;;;4.63;2.85;;;;;;;;;;5008937;28;20030;-53
2021/12/21 15:00:18;;;;;;;3.08;2.65;;;;;;;;;;5010758;28;20038;-53
2021/12/21 15:05:14;;;;;;;3.00;2.60;;;;;;;;;;5008221;28;20029;-53
2021/12/21 15:07:40;;;;;;;3.20;2.40;;;;;;;;;;5008972;28;20034;-53
2021/12/21 15:10:07;;;;;;;3.63;3.15;;;;;;;;;;5007443;28;20121;-53
2021/12/21 15:12:33;;;;;;;3.53;3.10;;;;;;;;;;5008337;28;20033;-51
2021/12/21 15:14:59;;;;;;;3.88;3.28;;;;;;;;;;5004000;28;20109;-53
2021/12/21 15:17:25;;;;;;;3.35;3.05;;;;;;;;;;5019919;28;20036;-53
2021/12/21 15:19:51;;;;;;;13.23;3.70;;;;;;;;;;5007542;28;20034;-51
2021/12/21 15:22:16;;;;;;;3.78;2.75;;;;;;;;;;5009517;28;20052;-50
2021/12/21 15:24:42;;;;;;;4.15;3.60;;;;;;;;;;5009737;28;20558;-51
2021/12/21 15:27:08;;;;;;;3.47;2.75;;;;;;;;;;5012570;28;20033;-52
2021/12/21 15:29:34;;;;;;;7.45;3.25;;;;;;;;;;5013098;28;20113;-54
2021/12/21 15:32:00;;;;;;;2.92;2.55;;;;;;;;;;5007451;28;20517;-52
2021/12/21 15:34:25;;;;;;;4.25;3.63;;;;;;;;;;5010819;28;20100;-53
2021/12/21 15:36:51;;;;;;;6.97;4.80;;;;;;;;;;5012086;28;20371;-53
2021/12/21 15:39:19;;;;;;;4.47;4.07;;;;;;;;;;5012613;28;20065;-53
2021/12/21 15:41:54;;;;;;;4.10;3.35;;;;;;;;;;5014889;28;20348;-50
2021/12/21 15:44:28;;;;;;;3.83;3.42;;;;;;;;;;5009731;28;20042;-51
2021/12/21 15:46:54;;;;;;;6.75;4.50;;;;;;;;;;5003922;28;20057;-53
2021/12/21 15:49:19;;;;;;;4.22;3.38;;;;;;;;;;5003858;28;20026;-54